Time;durP1;ratioP1;P1;durP2;ratioP2;P2;SDS_P1;SDS_P2;PMS_P1;PMS_P2;Temp;Humidity;BMP_temperature;BMP_pressure;BME280_temperature;BME280_humidity;BME280_pressure;Samples;Min_cycle;Max_cycle;Signal;HPM_P1;HPM_P2
2022/06/22 00:02:07;;;;;;;3.23;1.60;;;9.70;99.90;;;;;;8377618;28;20199;-69
2022/06/22 00:06:35;;;;;;;2.53;1.80;;;9.50;99.90;;;;;;8378641;28;20193;-70
2022/06/22 00:10:45;;;;;;;3.33;1.90;;;9.40;1.00;;;;;;8367667;28;20221;-70
2022/06/22 00:14:49;;;;;;;2.77;1.93;;;9.30;95.00;;;;;;8364948;28;20675;-70
2022/06/22 00:18:51;;;;;;;3.30;2.03;;;9.20;99.90;;;;;;8369778;28;20532;-65
2022/06/22 00:22:52;;;;;;;4.27;2.97;;;9.10;99.90;;;;;;8373291;28;20197;-70
2022/06/22 00:27:11;;;;;;;3.33;2.03;;;9.00;91.70;;;;;;8369205;28;20202;-69
2022/06/22 00:31:21;;;;;;;4.00;2.70;;;8.80;99.90;;;;;;8373133;28;20190;-69
2022/06/22 00:35:46;;;;;;;2.97;2.40;;;8.80;99.90;;;;;;8370837;28;20335;-69
2022/06/22 00:39:54;;;;;;;4.83;2.60;;;8.90;1.00;;;;;;8371242;28;20256;-70
2022/06/22 00:43:55;;;;;;;3.27;2.07;;;8.90;1.00;;;;;;8383142;28;20188;-70
2022/06/22 00:48:14;;;;;;;2.60;2.13;;;8.80;1.00;;;;;;8366303;28;20201;-69
2022/06/22 00:52:32;;;;;;;2.80;2.20;;;8.80;1.00;;;;;;8373052;28;20184;-70
2022/06/22 00:56:46;;;;;;;3.17;2.17;;;8.70;26.20;;;;;;8372733;28;20216;-70
2022/06/22 01:00:59;;;;;;;2.50;2.17;;;8.60;99.90;;;;;;8373288;28;20217;-70
2022/06/22 01:05:27;;;;;;;2.67;2.40;;;8.60;1.00;;;;;;8369977;28;20220;-69
2022/06/22 01:09:38;;;;;;;3.87;2.40;;;8.50;99.90;;;;;;8373431;28;20214;-70
2022/06/22 01:13:46;;;;;;;3.33;2.20;;;8.50;99.90;;;;;;8377939;28;20190;-69
2022/06/22 01:18:08;;;;;;;3.83;2.53;;;8.40;99.90;;;;;;8374293;28;20182;-70
2022/06/22 01:22:23;;;;;;;2.53;1.83;;;8.30;1.00;;;;;;8371635;28;20182;-69
2022/06/22 01:26:55;;;;;;;3.83;2.47;;;8.20;99.90;;;;;;8368320;28;20181;-69
2022/06/22 01:31:11;;;;;;;2.40;2.20;;;8.10;1.00;;;;;;8373353;28;20197;-70
2022/06/22 01:35:29;;;;;;;2.93;2.50;;;8.10;99.90;;;;;;8365763;28;20197;-69
2022/06/22 01:39:30;;;;;;;3.90;2.27;;;8.00;99.90;;;;;;8370296;28;20192;-69
2022/06/22 01:43:36;;;;;;;2.93;2.20;;;7.90;99.90;;;;;;8370126;28;20185;-69
2022/06/22 01:47:40;;;;;;;3.70;2.67;;;7.90;99.90;;;;;;8370415;28;20236;-69
2022/06/22 01:51:48;;;;;;;2.70;2.13;;;7.80;99.90;;;;;;8370143;28;20268;-71
2022/06/22 01:55:56;;;;;;;3.40;2.50;;;7.70;16.50;;;;;;8369703;28;20178;-70
2022/06/22 02:00:05;;;;;;;2.97;2.20;;;7.60;99.90;;;;;;8366736;28;20224;-70
2022/06/22 02:04:40;;;;;;;3.47;2.43;;;7.50;99.90;;;;;;8367736;28;20197;-70
2022/06/22 02:08:44;;;;;;;3.97;2.70;;;7.50;1.00;;;;;;8362521;28;20212;-70
2022/06/22 02:13:04;;;;;;;3.63;2.30;;;7.50;99.90;;;;;;8374166;28;20241;-68
2022/06/22 02:17:05;;;;;;;3.20;2.70;;;7.40;97.30;;;;;;8363839;28;20264;-68
2022/06/22 02:21:26;;;;;;;5.03;3.13;;;7.40;1.00;;;;;;8368251;28;20182;-68
2022/06/22 02:25:33;;;;;;;3.53;3.00;;;7.50;1.00;;;;;;8368213;28;21224;-69
2022/06/22 02:29:42;;;;;;;4.23;2.73;;;7.50;1.00;;;;;;8399738;28;20290;-69
2022/06/22 02:33:47;;;;;;;3.87;2.67;;;7.40;1.00;;;;;;8396558;28;20288;-68
2022/06/22 02:38:02;;;;;;;5.73;2.90;;;7.30;1.00;;;;;;8396419;28;20675;-68
2022/06/22 02:46:28;;;;;;;3.17;2.40;;;7.30;92.00;;;;;;8395098;28;20196;-69
2022/06/22 02:50:55;;;;;;;3.70;3.23;;;7.20;1.00;;;;;;8394231;28;20197;-69
2022/06/22 02:54:58;;;;;;;3.40;2.70;;;7.20;7.10;;;;;;8394900;28;20192;-69
2022/06/22 02:58:59;;;;;;;3.80;2.90;;;7.20;1.00;;;;;;8383868;28;20195;-66
2022/06/22 03:03:08;;;;;;;4.10;2.50;;;7.20;1.00;;;;;;8396690;28;20247;-66
2022/06/22 03:07:09;;;;;;;3.50;2.43;;;7.30;10.80;;;;;;8376632;28;20225;-67
2022/06/22 03:11:12;;;;;;;3.00;2.70;;;7.40;1.00;;;;;;8369142;28;20264;-67
2022/06/22 03:15:20;;;;;;;3.17;2.87;;;7.70;1.00;;;;;;8367651;28;20185;-67
2022/06/22 03:19:28;;;;;;;2.87;2.57;;;8.70;99.90;;;;;;8367046;28;20227;-67
2022/06/22 03:23:34;;;;;;;2.80;2.60;;;9.50;99.90;;;;;;8368543;28;20194;-68
2022/06/22 03:27:40;;;;;;;3.53;2.40;;;10.00;1.00;;;;;;8363220;28;20270;-67
2022/06/22 03:31:56;;;;;;;2.47;2.20;;;10.30;1.00;;;;;;8380373;28;20196;-68
2022/06/22 03:36:04;;;;;;;3.53;2.13;;;11.00;99.90;;;;;;8374176;28;20181;-67
2022/06/22 03:40:24;;;;;;;4.17;1.87;;;12.40;1.00;;;;;;8372762;28;20247;-68
2022/06/22 03:44:34;;;;;;;2.80;1.97;;;13.90;70.10;;;;;;8371445;28;20209;-67
2022/06/22 03:48:41;;;;;;;4.20;2.27;;;14.70;99.90;;;;;;8374393;28;20216;-68
2022/06/22 03:53:12;;;;;;;2.43;1.33;;;15.40;99.90;;;;;;8368199;28;20181;-68
2022/06/22 03:57:17;;;;;;;2.53;1.63;;;16.40;99.90;;;;;;8370868;28;20186;-67
2022/06/22 04:01:19;;;;;;;2.10;1.80;;;17.40;99.90;;;;;;8370931;28;20182;-67
2022/06/22 04:05:24;;;;;;;2.90;1.80;;;18.10;94.20;;;;;;8369121;28;20254;-68
2022/06/22 04:09:27;;;;;;;2.47;1.67;;;18.90;37.70;;;;;;8367964;28;20573;-68
2022/06/22 04:13:40;;;;;;;3.20;1.93;;;19.50;1.00;;;;;;8372376;28;20181;-67
2022/06/22 04:17:46;;;;;;;2.53;1.57;;;20.20;1.00;;;;;;8369622;28;20190;-68
2022/06/22 04:21:56;;;;;;;2.67;1.77;;;20.50;1.00;;;;;;8374231;28;20566;-67
2022/06/22 04:26:25;;;;;;;2.87;1.50;;;20.50;1.00;;;;;;8366682;28;20188;-67
2022/06/22 04:30:30;;;;;;;3.00;1.20;;;20.70;1.00;;;;;;8371708;28;20257;-67
2022/06/22 04:34:41;;;;;;;2.03;1.40;;;21.00;1.00;;;;;;8374695;28;20220;-67
2022/06/22 04:39:05;;;;;;;2.80;1.80;;;21.50;1.00;;;;;;8371726;28;20273;-67
2022/06/22 04:43:08;;;;;;;3.13;2.03;;;21.80;1.00;;;;;;8366909;28;20178;-67
2022/06/22 04:47:24;;;;;;;2.63;2.20;;;21.90;1.00;;;;;;8366958;28;20208;-68
2022/06/22 04:51:33;;;;;;;3.73;1.83;;;21.50;1.00;;;;;;8372161;28;20201;-68
2022/06/22 04:55:41;;;;;;;2.97;2.03;;;21.50;1.00;;;;;;8371922;28;20190;-67
2022/06/22 04:59:42;;;;;;;7.33;2.47;;;21.50;1.00;;;;;;8368756;28;20196;-68
2022/06/22 05:03:43;;;;;;;3.00;1.70;;;21.30;1.00;;;;;;8366580;28;20215;-67
2022/06/22 05:07:52;;;;;;;3.83;1.67;;;21.40;1.00;;;;;;8367127;28;20290;-67
2022/06/22 05:11:53;;;;;;;3.43;1.83;;;21.70;1.00;;;;;;8375537;28;20186;-68
2022/06/22 05:15:56;;;;;;;2.20;1.37;;;21.70;1.00;;;;;;8375735;28;20215;-68
2022/06/22 05:20:00;;;;;;;4.23;1.60;;;21.30;1.00;;;;;;8373632;28;20189;-63
2022/06/22 05:24:06;;;;;;;2.77;1.43;;;20.80;4.30;;;;;;8375356;28;20184;-65
2022/06/22 05:28:16;;;;;;;1.67;1.10;;;20.30;32.70;;;;;;8368719;28;20220;-64
2022/06/22 05:32:45;;;;;;;3.83;1.60;;;20.00;43.40;;;;;;8369121;28;20182;-64
2022/06/22 05:36:50;;;;;;;3.20;1.10;;;19.90;45.50;;;;;;8360710;28;20201;-63
2022/06/22 05:40:53;;;;;;;3.03;1.13;;;19.80;35.40;;;;;;8363879;28;20186;-65
2022/06/22 05:44:54;;;;;;;2.13;1.13;;;19.80;34.60;;;;;;8371988;28;20174;-63
2022/06/22 05:48:56;;;;;;;2.97;1.30;;;19.90;27.50;;;;;;8366350;28;20358;-67
2022/06/22 05:53:03;;;;;;;2.97;1.13;;;20.10;22.40;;;;;;8365194;28;20223;-66
2022/06/22 05:57:36;;;;;;;3.63;1.43;;;20.30;5.40;;;;;;8367649;28;20182;-63
2022/06/22 06:02:06;;;;;;;4.93;1.50;;;20.40;1.00;;;;;;8373940;28;20228;-64
2022/06/22 06:06:18;;;;;;;2.63;1.20;;;20.60;1.00;;;;;;8362474;28;20201;-64
2022/06/22 06:10:21;;;;;;;4.20;1.10;;;20.80;1.00;;;;;;8368701;28;20288;-68
2022/06/22 06:14:30;;;;;;;1.70;0.93;;;20.80;1.00;;;;;;8367123;28;20189;-67
2022/06/22 06:18:36;;;;;;;2.30;1.00;;;21.00;1.00;;;;;;8364770;28;20189;-62
2022/06/22 06:22:37;;;;;;;2.47;1.07;;;21.20;1.00;;;;;;8366574;28;20186;-66
2022/06/22 06:31:37;;;;;;;2.50;1.20;;;21.70;1.00;;;;;;8355201;28;20204;-66
2022/06/22 06:35:55;;;;;;;4.27;1.30;;;22.00;1.00;;;;;;8368800;28;20186;-63
2022/06/22 06:39:57;;;;;;;3.53;1.40;;;22.10;1.00;;;;;;8363806;28;20223;-64
2022/06/22 06:44:05;;;;;;;4.43;1.20;;;22.30;1.00;;;;;;8363942;28;20185;-64
2022/06/22 06:48:11;;;;;;;2.57;1.27;;;22.50;1.00;;;;;;8364235;28;20297;-64
2022/06/22 06:52:27;;;;;;;2.33;1.13;;;22.70;1.00;;;;;;8358733;28;20189;-63
2022/06/22 06:56:58;;;;;;;2.53;1.63;;;22.90;1.00;;;;;;8364840;28;20185;-67
2022/06/22 07:00:58;;;;;;;3.33;1.17;;;23.10;1.00;;;;;;8363140;28;20189;-64
2022/06/22 07:05:02;;;;;;;3.37;1.40;;;23.10;1.00;;;;;;8364457;28;20207;-65
2022/06/22 07:09:29;;;;;;;3.53;1.10;;;23.20;1.00;;;;;;8378259;28;20259;-63
2022/06/22 07:13:54;;;;;;;2.00;0.77;;;23.30;1.00;;;;;;8373339;28;20260;-67
2022/06/22 07:18:00;;;;;;;3.73;0.90;;;23.40;1.00;;;;;;8370128;28;20200;-69
2022/06/22 07:22:33;;;;;;;1.33;0.63;;;23.40;1.00;;;;;;8372736;28;20186;-68
2022/06/22 07:27:03;;;;;;;5.43;1.33;;;23.40;1.00;;;;;;8372162;28;20197;-68
2022/06/22 07:31:12;;;;;;;3.20;0.77;;;23.50;1.00;;;;;;8371802;28;20238;-69
2022/06/22 07:35:19;;;;;;;1.90;0.90;;;23.50;1.00;;;;;;8373813;28;20200;-63
2022/06/22 07:39:38;;;;;;;1.37;0.90;;;23.50;1.00;;;;;;8367413;28;20193;-64
2022/06/22 07:43:39;;;;;;;2.40;1.03;;;23.50;1.00;;;;;;8372661;28;20583;-64
2022/06/22 07:48:00;;;;;;;2.50;0.83;;;23.50;1.00;;;;;;8368414;28;20213;-64
2022/06/22 07:52:03;;;;;;;2.30;0.97;;;23.70;1.00;;;;;;8368934;28;20617;-67
2022/06/22 07:56:14;;;;;;;4.37;1.00;;;23.70;1.00;;;;;;8371467;28;20185;-62
2022/06/22 08:00:19;;;;;;;2.77;1.00;;;23.80;1.00;;;;;;8371809;28;20197;-63
2022/06/22 08:04:35;;;;;;;2.43;1.00;;;23.80;1.00;;;;;;8365576;28;20229;-64
2022/06/22 08:09:13;;;;;;;1.97;1.17;;;23.70;1.00;;;;;;8376306;28;20220;-63
2022/06/22 08:13:27;;;;;;;4.80;0.83;;;23.80;1.00;;;;;;8367908;28;20221;-64
2022/06/22 08:17:39;;;;;;;1.37;0.60;;;23.80;1.00;;;;;;8368309;28;20185;-63
2022/06/22 08:21:44;;;;;;;2.97;1.07;;;23.80;1.00;;;;;;8375192;28;20190;-61
2022/06/22 08:25:47;;;;;;;2.20;1.00;;;23.70;1.00;;;;;;8372271;28;20189;-61
2022/06/22 08:29:49;;;;;;;1.80;0.87;;;23.40;1.00;;;;;;8369292;28;20225;-62
2022/06/22 08:33:58;;;;;;;1.80;0.80;;;23.30;1.00;;;;;;8366554;28;20178;-67
2022/06/22 08:38:25;;;;;;;6.57;1.00;;;23.00;1.00;;;;;;8367174;28;20190;-66
2022/06/22 08:42:31;;;;;;;3.03;1.00;;;22.90;1.00;;;;;;8365351;28;20178;-66
2022/06/22 08:46:49;;;;;;;1.27;0.80;;;23.30;1.00;;;;;;8365699;28;20262;-63
2022/06/22 08:51:10;;;;;;;2.23;0.80;;;23.50;1.00;;;;;;8373041;28;20192;-63
2022/06/22 08:55:23;;;;;;;3.70;0.90;;;23.80;1.00;;;;;;8376359;28;20197;-63
2022/06/22 08:59:36;;;;;;;2.23;0.73;;;23.90;1.00;;;;;;8366639;28;20244;-64
2022/06/22 09:04:15;;;;;;;3.27;0.90;;;24.20;1.00;;;;;;8364700;28;20219;-62
2022/06/22 09:08:31;;;;;;;3.13;0.97;;;24.40;1.00;;;;;;8328140;28;20272;-63
2022/06/22 09:12:32;;;;;;;2.23;0.83;;;24.70;1.00;;;;;;8369764;28;20189;-66
2022/06/22 09:17:10;;;;;;;1.40;0.50;;;25.00;1.00;;;;;;8369945;28;20184;-65
2022/06/22 09:21:19;;;;;;;3.23;0.90;;;25.20;1.00;;;;;;8373897;28;20276;-62
2022/06/22 09:25:33;;;;;;;2.47;0.83;;;25.40;1.00;;;;;;8365179;28;20208;-62
2022/06/22 09:29:41;;;;;;;1.63;0.87;;;25.60;1.00;;;;;;8366307;28;20278;-61
2022/06/22 09:34:05;;;;;;;1.00;0.50;;;25.60;1.00;;;;;;8366318;28;20190;-64
2022/06/22 09:38:38;;;;;;;2.77;0.90;;;25.40;1.00;;;;;;8357305;28;20231;-67
2022/06/22 09:42:56;;;;;;;3.30;0.80;;;25.50;1.00;;;;;;8366386;28;20181;-65
2022/06/22 09:47:03;;;;;;;3.63;0.87;;;25.60;1.00;;;;;;8368798;28;20187;-67
2022/06/22 09:51:25;;;;;;;2.50;0.60;;;25.50;1.00;;;;;;8369650;28;20184;-62
2022/06/22 10:00:23;;;;;;;1.30;0.53;;;25.20;1.00;;;;;;8365383;28;20244;-63
2022/06/22 10:04:43;;;;;;;1.30;0.70;;;25.30;1.00;;;;;;8365577;28;20252;-65
2022/06/22 10:09:02;;;;;;;2.03;0.60;;;25.50;1.00;;;;;;8364647;28;20275;-64
2022/06/22 10:13:22;;;;;;;1.83;1.00;;;25.80;1.00;;;;;;8362842;28;20188;-63
2022/06/22 10:17:59;;;;;;;2.75;0.82;;;25.60;1.00;;;;;;8367256;28;20197;-64
2022/06/22 10:22:18;;;;;;;2.50;0.70;;;25.60;1.00;;;;;;8375864;28;20272;-62
2022/06/22 10:26:38;;;;;;;2.10;1.17;;;26.20;1.00;;;;;;8374062;28;20181;-60
2022/06/22 10:31:04;;;;;;;2.40;0.88;;;26.40;1.00;;;;;;8369770;28;20327;-62
2022/06/22 10:35:22;;;;;;;3.45;0.80;;;26.40;1.00;;;;;;8364922;28;20187;-61
2022/06/22 10:39:23;;;;;;;2.80;0.77;;;26.30;1.00;;;;;;8364689;28;20214;-62
2022/06/22 10:48:38;;;;;;;4.93;1.00;;;26.20;1.00;;;;;;8369089;28;20320;-64
2022/06/22 10:52:57;;;;;;;1.50;0.80;;;26.60;1.00;;;;;;8364059;28;20201;-68
2022/06/22 10:57:23;;;;;;;1.52;0.68;;;26.90;1.00;;;;;;8365168;28;20188;-66
2022/06/22 11:01:45;;;;;;;1.67;0.80;;;26.80;1.00;;;;;;8377961;28;20173;-67
2022/06/22 11:06:15;;;;;;;2.03;0.70;;;26.60;1.00;;;;;;8369383;28;20255;-63
2022/06/22 11:10:26;;;;;;;3.13;0.77;;;26.60;1.00;;;;;;8364615;28;20239;-66
2022/06/22 11:14:39;;;;;;;1.40;0.70;;;26.90;1.00;;;;;;8370311;28;20467;-64
2022/06/22 11:19:06;;;;;;;2.05;0.60;;;27.20;1.00;;;;;;8363362;28;20190;-63
2022/06/22 11:23:14;;;;;;;0.70;0.40;;;27.60;1.00;;;;;;8362717;28;20177;-65
2022/06/22 11:31:55;;;;;;;2.28;0.60;;;27.80;1.00;;;;;;8369138;28;20190;-64
2022/06/22 11:36:14;;;;;;;7.57;0.90;;;27.90;1.00;;;;;;8364760;28;20173;-66
2022/06/22 11:40:59;;;;;;;2.17;0.60;;;28.00;1.00;;;;;;8369432;28;20189;-64
2022/06/22 11:49:40;;;;;;;2.00;0.70;;;27.70;1.00;;;;;;8362433;28;20296;-63
2022/06/22 11:54:03;;;;;;;2.08;0.50;;;27.70;1.00;;;;;;8367224;28;20182;-62
2022/06/22 11:58:25;;;;;;;1.02;0.55;;;27.80;1.00;;;;;;8370520;28;20188;-63
2022/06/22 12:02:47;;;;;;;2.50;0.77;;;28.00;1.00;;;;;;8368526;28;20185;-62
2022/06/22 12:07:01;;;;;;;1.90;1.17;;;28.10;1.00;;;;;;8368010;28;20193;-63
2022/06/22 12:11:26;;;;;;;2.75;0.90;;;28.20;1.00;;;;;;8370890;28;20182;-65
2022/06/22 12:15:43;;;;;;;1.23;0.80;;;28.30;1.00;;;;;;8377070;28;20208;-64
2022/06/22 12:20:03;;;;;;;0.82;0.50;;;28.60;1.00;;;;;;8370392;28;20214;-68
2022/06/22 12:24:43;;;;;;;3.90;0.85;;;28.70;1.00;;;;;;8371655;28;20261;-65
2022/06/22 12:29:05;;;;;;;1.90;0.73;;;28.50;1.00;;;;;;8363564;28;20218;-62
2022/06/22 12:33:25;;;;;;;4.97;0.90;;;28.30;1.00;;;;;;8371655;28;20188;-65
2022/06/22 12:37:32;;;;;;;0.73;0.50;;;28.30;1.00;;;;;;8368797;28;20181;-63
2022/06/22 12:41:54;;;;;;;1.65;0.65;;;28.50;1.00;;;;;;8367060;28;20244;-65
2022/06/22 12:46:01;;;;;;;2.53;0.55;;;28.60;1.00;;;;;;8368015;28;20197;-61
2022/06/22 12:50:40;;;;;;;1.45;0.57;;;28.40;1.00;;;;;;8372405;28;20212;-66
2022/06/22 12:54:48;;;;;;;1.10;0.70;;;28.30;1.00;;;;;;8363808;28;20220;-63
2022/06/22 12:59:00;;;;;;;3.15;0.60;;;28.30;1.00;;;;;;8374976;28;20267;-70
2022/06/22 13:03:02;;;;;;;1.92;0.70;;;28.10;1.00;;;;;;8367720;28;20194;-68
2022/06/22 13:07:12;;;;;;;1.23;0.65;;;28.20;1.00;;;;;;8364256;28;20181;-63
2022/06/22 13:11:19;;;;;;;4.45;0.82;;;28.30;1.00;;;;;;8374382;28;20204;-64
2022/06/22 13:15:27;;;;;;;2.92;0.73;;;28.30;1.00;;;;;;8367119;28;20512;-63
2022/06/22 13:19:28;;;;;;;2.00;0.52;;;28.40;1.00;;;;;;8358015;28;20186;-62
2022/06/22 13:23:45;;;;;;;1.85;0.70;;;28.50;1.00;;;;;;8365211;28;20209;-66
2022/06/22 13:27:55;;;;;;;1.10;0.60;;;28.50;1.00;;;;;;8372927;28;20275;-64
2022/06/22 13:32:00;;;;;;;2.25;0.60;;;28.70;1.00;;;;;;8365929;28;20216;-63
2022/06/22 13:36:17;;;;;;;1.00;0.60;;;28.80;1.00;;;;;;8371853;28;20185;-66
2022/06/22 13:40:55;;;;;;;1.55;0.50;;;29.00;1.00;;;;;;8387013;28;20177;-62
2022/06/22 13:44:59;;;;;;;2.25;0.60;;;29.00;1.00;;;;;;8360450;28;20190;-62
2022/06/22 13:49:24;;;;;;;2.05;0.63;;;29.00;1.00;;;;;;8367298;28;20207;-61
2022/06/22 13:53:59;;;;;;;2.50;0.50;;;28.80;1.00;;;;;;8365612;28;20181;-64
2022/06/22 13:58:26;;;;;;;1.23;0.50;;;28.80;1.00;;;;;;8363472;28;20205;-64
2022/06/22 14:02:45;;;;;;;3.38;0.77;;;28.90;1.00;;;;;;8356168;28;20224;-67
2022/06/22 14:07:13;;;;;;;2.67;0.80;;;29.00;1.00;;;;;;8368366;28;20204;-62
2022/06/22 14:11:27;;;;;;;3.40;0.50;;;29.00;1.00;;;;;;8366925;28;20193;-62
2022/06/22 14:15:36;;;;;;;2.72;0.73;;;28.80;1.00;;;;;;8367015;28;20296;-62
2022/06/22 14:19:40;;;;;;;3.38;0.60;;;28.70;1.00;;;;;;8365877;28;20181;-63
2022/06/22 14:23:41;;;;;;;3.70;0.60;;;28.60;1.00;;;;;;8367444;28;20264;-61
2022/06/22 14:27:42;;;;;;;1.10;0.50;;;28.40;1.00;;;;;;8363922;28;20197;-64
2022/06/22 14:32:11;;;;;;;1.60;0.63;;;28.40;1.00;;;;;;8363896;28;20390;-65
2022/06/22 14:36:37;;;;;;;3.15;0.80;;;28.30;1.00;;;;;;8371629;28;20207;-62
2022/06/22 14:40:59;;;;;;;1.83;0.80;;;28.00;1.00;;;;;;8367945;28;20272;-66
2022/06/22 14:45:34;;;;;;;1.30;0.50;;;27.70;1.00;;;;;;8372975;28;20262;-68
2022/06/22 14:49:41;;;;;;;2.50;0.70;;;27.50;1.00;;;;;;8366249;28;20205;-62
2022/06/22 14:54:03;;;;;;;2.88;0.82;;;27.60;1.00;;;;;;8372013;28;20260;-60
2022/06/22 14:58:16;;;;;;;1.25;0.60;;;27.50;1.00;;;;;;8371793;28;20230;-62
2022/06/22 15:02:26;;;;;;;1.67;0.63;;;27.80;1.00;;;;;;8366655;28;20208;-62
2022/06/22 15:07:00;;;;;;;3.95;0.80;;;28.00;1.00;;;;;;8378067;28;20201;-64
2022/06/22 15:15:52;;;;;;;4.70;1.80;;;28.40;1.00;;;;;;8359320;28;20202;-63
2022/06/22 15:19:59;;;;;;;2.10;0.70;;;28.60;1.00;;;;;;8363836;28;20178;-67
2022/06/22 15:24:20;;;;;;;1.13;0.60;;;28.60;1.00;;;;;;8361362;28;20180;-64
2022/06/22 15:29:08;;;;;;;2.90;0.82;;;28.60;1.00;;;;;;8359650;28;20218;-62
2022/06/22 15:33:15;;;;;;;1.05;0.70;;;28.80;1.00;;;;;;8368740;28;20456;-62
2022/06/22 15:37:20;;;;;;;1.73;0.70;;;28.70;1.00;;;;;;8370492;28;20178;-64
2022/06/22 15:41:58;;;;;;;1.00;0.70;;;28.60;1.00;;;;;;8371325;28;20243;-62
2022/06/22 15:46:26;;;;;;;1.73;0.60;;;28.40;1.00;;;;;;8372019;28;20177;-62
2022/06/22 15:50:44;;;;;;;2.67;1.20;;;28.20;1.00;;;;;;8371586;28;20246;-64
2022/06/22 15:54:58;;;;;;;2.00;0.95;;;27.90;1.00;;;;;;8375695;28;20186;-63
2022/06/22 15:59:16;;;;;;;4.32;1.88;;;27.80;1.00;;;;;;8371676;28;20371;-64
2022/06/22 16:03:26;;;;;;;2.80;0.85;;;27.70;1.00;;;;;;8371252;28;20208;-62
2022/06/22 16:07:38;;;;;;;3.65;1.20;;;27.60;1.00;;;;;;8375863;28;20211;-63
2022/06/22 16:16:19;;;;;;;1.85;0.70;;;27.70;1.00;;;;;;8369195;28;20320;-66
2022/06/22 16:20:33;;;;;;;2.15;0.75;;;27.80;1.00;;;;;;8369629;28;20274;-66
2022/06/22 16:24:34;;;;;;;3.28;0.70;;;27.70;1.00;;;;;;8371954;28;20250;-69
2022/06/22 16:28:54;;;;;;;2.55;0.90;;;27.70;1.00;;;;;;8374653;28;20220;-65
2022/06/22 16:33:02;;;;;;;1.58;0.80;;;27.60;1.00;;;;;;8374654;28;20226;-65
2022/06/22 16:37:21;;;;;;;1.65;0.82;;;27.70;1.00;;;;;;8374101;28;20181;-65
2022/06/22 16:41:42;;;;;;;1.00;0.68;;;27.80;1.00;;;;;;8377494;28;20201;-63
2022/06/22 16:45:55;;;;;;;1.00;0.52;;;27.70;1.00;;;;;;8361314;28;20186;-62
2022/06/22 16:50:00;;;;;;;2.70;0.77;;;27.70;1.00;;;;;;8372271;28;20214;-60
2022/06/22 16:54:21;;;;;;;4.13;0.90;;;27.70;1.00;;;;;;8365393;28;20185;-62
2022/06/22 16:58:28;;;;;;;2.72;1.08;;;27.60;1.00;;;;;;8370486;28;20268;-66
2022/06/22 17:02:28;;;;;;;4.07;1.35;;;27.60;1.00;;;;;;8364413;28;20230;-63
2022/06/22 17:07:00;;;;;;;2.45;1.00;;;27.50;1.00;;;;;;8361017;28;20242;-65
2022/06/22 17:11:07;;;;;;;2.97;1.77;;;27.60;1.00;;;;;;8363893;28;20248;-61
2022/06/22 17:15:08;;;;;;;1.35;0.75;;;27.70;1.00;;;;;;8364710;28;20326;-62
2022/06/22 17:19:19;;;;;;;1.35;1.00;;;28.30;1.00;;;;;;8371139;28;20181;-60
2022/06/22 17:23:29;;;;;;;2.03;0.93;;;28.90;1.00;;;;;;8369089;28;20174;-66
2022/06/22 17:27:45;;;;;;;4.25;1.20;;;29.60;1.00;;;;;;8365593;28;20202;-61
2022/06/22 17:31:52;;;;;;;1.85;1.08;;;30.00;1.00;;;;;;8368049;28;20178;-61
2022/06/22 17:36:21;;;;;;;2.53;1.50;;;30.30;1.00;;;;;;8369773;28;20189;-65
2022/06/22 17:40:54;;;;;;;6.65;3.05;;;30.80;1.00;;;;;;8368936;28;20197;-61
2022/06/22 17:45:04;;;;;;;3.03;1.10;;;31.70;1.00;;;;;;8363261;28;20196;-64
2022/06/22 17:49:12;;;;;;;2.92;1.50;;;32.50;1.00;;;;;;8363705;28;20216;-64
2022/06/22 17:53:19;;;;;;;2.97;1.23;;;32.90;1.00;;;;;;8366285;28;20174;-60
2022/06/22 17:57:32;;;;;;;2.17;1.00;;;32.60;1.00;;;;;;8364841;28;20186;-61
2022/06/22 18:01:43;;;;;;;5.90;2.05;;;32.00;1.00;;;;;;8369182;28;20193;-60
2022/06/22 18:05:59;;;;;;;1.42;0.77;;;32.00;1.00;;;;;;8366351;28;20405;-61
2022/06/22 18:10:05;;;;;;;1.83;0.70;;;32.10;1.00;;;;;;8361266;28;20201;-59
2022/06/22 18:14:16;;;;;;;3.70;1.05;;;32.40;1.00;;;;;;8364635;28;20180;-61
2022/06/22 18:18:20;;;;;;;2.38;0.98;;;32.60;1.00;;;;;;8370619;28;20182;-60
2022/06/22 18:22:44;;;;;;;3.33;0.90;;;32.50;1.00;;;;;;8362450;28;20209;-60
2022/06/22 18:26:56;;;;;;;5.13;1.58;;;31.40;1.00;;;;;;8364900;28;20181;-61
2022/06/22 18:31:08;;;;;;;4.65;2.13;;;30.30;1.00;;;;;;8369323;28;20201;-63
2022/06/22 18:35:25;;;;;;;2.28;1.20;;;29.80;1.00;;;;;;8377154;28;20177;-64
2022/06/22 18:44:11;;;;;;;2.72;1.40;;;30.40;1.00;;;;;;8365544;28;20210;-65
2022/06/22 18:48:22;;;;;;;2.83;1.15;;;30.40;1.00;;;;;;8367264;28;20208;-64
2022/06/22 18:52:37;;;;;;;3.97;1.40;;;30.20;1.00;;;;;;8361895;28;20184;-64
2022/06/22 18:56:45;;;;;;;4.03;1.27;;;29.60;1.00;;;;;;8373192;28;20185;-65
2022/06/22 19:00:58;;;;;;;1.38;1.00;;;28.80;1.00;;;;;;8367425;28;20182;-64
2022/06/22 19:05:27;;;;;;;2.05;1.30;;;27.80;1.00;;;;;;8370198;28;20188;-64
2022/06/22 19:09:47;;;;;;;3.15;1.00;;;26.40;1.00;;;;;;8370951;28;20213;-65
2022/06/22 19:13:55;;;;;;;1.20;0.70;;;25.20;1.00;;;;;;8373448;28;20182;-64
2022/06/22 19:18:05;;;;;;;1.37;1.10;;;24.40;1.00;;;;;;8371346;28;20177;-66
2022/06/22 19:22:39;;;;;;;2.20;1.00;;;23.60;1.00;;;;;;8368961;28;20493;-64
2022/06/22 19:26:47;;;;;;;1.43;0.80;;;22.90;1.00;;;;;;8375491;28;20192;-65
2022/06/22 19:31:11;;;;;;;2.53;1.00;;;22.40;1.00;;;;;;8375629;28;20210;-65
2022/06/22 19:35:21;;;;;;;1.33;0.83;;;21.90;1.00;;;;;;8370564;28;20182;-66
2022/06/22 19:39:41;;;;;;;1.67;0.93;;;21.40;1.00;;;;;;8373596;28;20213;-66
2022/06/22 19:44:10;;;;;;;2.57;1.10;;;21.00;1.00;;;;;;8372199;28;20190;-68
2022/06/22 19:48:17;;;;;;;3.20;1.50;;;20.60;1.00;;;;;;8373085;28;20266;-64
2022/06/22 19:52:58;;;;;;;3.13;1.20;;;20.30;1.00;;;;;;8368906;28;20185;-69
2022/06/22 19:57:01;;;;;;;4.00;1.10;;;20.00;1.00;;;;;;8285978;28;20269;-68
2022/06/22 20:01:09;;;;;;;2.67;1.63;;;19.90;1.00;;;;;;8334049;28;20193;-69
2022/06/22 20:05:21;;;;;;;4.60;2.77;;;19.70;1.00;;;;;;8372873;28;20228;-70
2022/06/22 20:09:28;;;;;;;7.47;3.17;;;19.30;1.00;;;;;;8381758;28;20565;-69
2022/06/22 20:13:55;;;;;;;6.03;2.83;;;19.10;1.00;;;;;;8364770;28;20186;-64
2022/06/22 20:17:58;;;;;;;3.37;2.00;;;18.90;1.00;;;;;;8371165;28;20206;-69
2022/06/22 20:22:07;;;;;;;2.30;1.60;;;18.60;1.00;;;;;;8369796;28;20272;-68
2022/06/22 20:26:26;;;;;;;1.83;1.50;;;18.30;11.00;;;;;;8367811;28;20618;-68
2022/06/22 20:30:50;;;;;;;4.03;1.77;;;18.00;19.90;;;;;;8364023;28;20224;-68
2022/06/22 20:35:05;;;;;;;2.10;1.47;;;17.80;16.30;;;;;;8367187;28;20258;-68
2022/06/22 20:39:06;;;;;;;2.10;1.13;;;17.60;35.00;;;;;;8376003;28;20297;-68
2022/06/22 20:43:22;;;;;;;2.43;1.40;;;17.40;67.10;;;;;;8363982;28;20212;-65
2022/06/22 20:47:47;;;;;;;2.30;1.30;;;17.20;90.40;;;;;;8367048;28;20224;-65
2022/06/22 20:51:59;;;;;;;1.30;1.10;;;17.00;99.90;;;;;;8375662;28;20522;-69
2022/06/22 20:56:12;;;;;;;2.03;0.93;;;16.90;99.90;;;;;;8366642;28;20185;-69
2022/06/22 21:00:19;;;;;;;1.80;1.20;;;16.70;99.90;;;;;;8370437;28;20412;-69
2022/06/22 21:04:21;;;;;;;1.83;1.23;;;16.60;99.90;;;;;;8364973;28;20225;-67
2022/06/22 21:08:24;;;;;;;2.07;1.57;;;16.50;99.90;;;;;;8371599;28;20202;-69
2022/06/22 21:12:30;;;;;;;2.40;1.63;;;16.40;99.90;;;;;;8366558;28;20605;-69
2022/06/22 21:16:34;;;;;;;5.93;2.47;;;16.30;99.90;;;;;;8362876;28;20182;-69
2022/06/22 21:20:38;;;;;;;4.80;2.23;;;16.20;99.90;;;;;;8373116;28;20185;-68
2022/06/22 21:25:00;;;;;;;2.87;1.93;;;16.10;99.90;;;;;;8369037;28;20220;-69
2022/06/22 21:29:31;;;;;;;2.17;1.60;;;16.00;99.90;;;;;;8369922;28;20215;-69
2022/06/22 21:33:32;;;;;;;4.20;1.83;;;15.90;99.90;;;;;;8372235;28;20185;-67
2022/06/22 21:37:53;;;;;;;2.30;1.53;;;15.80;99.90;;;;;;8364775;28;20290;-70
2022/06/22 21:42:12;;;;;;;2.43;1.50;;;15.70;99.90;;;;;;8366946;28;20186;-69
2022/06/22 21:46:42;;;;;;;1.80;1.27;;;15.50;99.90;;;;;;8362204;28;20193;-70
2022/06/22 21:51:05;;;;;;;3.10;1.13;;;15.50;99.90;;;;;;8369836;28;20240;-67
2022/06/22 21:55:31;;;;;;;2.13;1.30;;;15.30;99.90;;;;;;8365786;28;20208;-69
2022/06/22 21:59:39;;;;;;;1.50;1.30;;;15.20;99.90;;;;;;8367184;28;20266;-68
2022/06/22 22:04:13;;;;;;;1.40;1.30;;;15.10;99.90;;;;;;8359463;28;20231;-69
2022/06/22 22:08:16;;;;;;;1.73;1.20;;;14.90;99.90;;;;;;8361158;28;20202;-69
2022/06/22 22:12:22;;;;;;;1.67;1.50;;;14.80;99.90;;;;;;8361849;28;20711;-68
2022/06/22 22:16:31;;;;;;;3.70;1.50;;;14.70;99.90;;;;;;8361994;28;20204;-67
2022/06/22 22:20:35;;;;;;;1.43;1.33;;;14.60;99.90;;;;;;8361834;28;20240;-69
2022/06/22 22:24:41;;;;;;;1.77;1.40;;;14.60;99.90;;;;;;8362761;28;20196;-69
2022/06/22 22:29:11;;;;;;;8.43;3.90;;;14.60;99.90;;;;;;8365704;28;20221;-67
2022/06/22 22:33:14;;;;;;;7.83;4.07;;;14.50;1.00;;;;;;8361763;28;20195;-69
2022/06/22 22:37:24;;;;;;;6.00;3.50;;;14.50;1.00;;;;;;8361016;28;20243;-69
2022/06/22 22:41:27;;;;;;;3.97;1.83;;;14.40;1.00;;;;;;8361970;28;20192;-69
2022/06/22 22:45:29;;;;;;;1.90;1.30;;;14.20;1.00;;;;;;8360611;28;20213;-66
2022/06/22 22:49:34;;;;;;;2.60;1.63;;;13.90;1.00;;;;;;8355589;28;20217;-69
2022/06/22 22:53:35;;;;;;;2.37;1.80;;;13.70;1.00;;;;;;8355128;28;20199;-70
2022/06/22 22:57:45;;;;;;;2.33;1.77;;;13.60;1.00;;;;;;8364463;28;20185;-69